Terminal Aerodrome Forecast
Issued by NWS

Home | Current Version | Previous Version | Text Only | Print | Product List | Glossary On
Versions: 1 2 3 4 5 6 7 8 9 10 11 12 13 14 15 16 17
000
FTUS45 KRIW 211725
TAFCPR
TAF
KCPR 211725Z 2118/2218 VRB06KT 6SM -RA BKN007 OVC025
     FM220000 28011KT P6SM VCSH OVC025
     FM220400 VRB05KT P6SM VCSH OVC025
     FM221500 22012KT P6SM BKN060=

USA.gov is the U.S. government's official web portal to all federal, state and local government web resources and services.